Christina O — C6FN7 — position and weather

sailwx.info

Track history (hours):
 
Tides and Currents Weather Stations Pressure Air Temp Water Temp Dewpoint Dewpoint Depression Visibility Wind Speed Wind Dir Waves Ship Positions

Christina O

Operator: V Ships Leisure SAM

Last reported at 2018-Nov-09 00:29 UTC. Time now 2018-Nov-13 06:50 UTC.
Position N 14°00' W 061°06'.

Length 186 m; draft 6.1 m.

Type: Passenger vessel. MMSI: 308322000.

Date/timePositionNaut miles runAvg speedWind from/ knotsBaromVisibWave heightAir tempDewpointWater temp
2018-Nov-09 00:29N 14°00' W 061°06'611.8
2018-Nov-08 23:59N 14°01' W 060°60'1 0.1
2018-Nov-08 09:54N 14°01' W 061°01'410.6
2018-Nov-08 09:32N 14°05' W 061°03'610.9
2018-Nov-08 09:00N 14°10' W 061°06'510.9
2018-Nov-08 08:32N 14°15' W 061°08'511.0
2018-Nov-08 08:02N 14°20' W 061°10'611.3
2018-Nov-08 07:32N 14°25' W 061°12'214 6.7
2018-Nov-06 23:24N 17°35' W 062°54'615.0
2018-Nov-06 23:02N 17°41' W 062°54'115.3
2018-Nov-06 22:59N 17°42' W 062°54'1313.2
2018-Nov-06 22:00N 17°54' W 062°52'2 0.2
2018-Nov-06 11:40N 17°54' W 062°54'211.8
2018-Nov-06 11:29N 17°55' W 062°56'511.8
2018-Nov-06 11:03N 17°56' W 063°02'111.9
2018-Nov-06 10:59N 17°56' W 063°02'1111.9
2018-Nov-06 10:01N 17°59' W 063°14'1412.0
2018-Nov-06 08:52N 18°03' W 063°28'511.7
2018-Nov-06 08:26N 18°05' W 063°33'4312.0
2018-Nov-06 04:49N 18°19' W 064°16'411.8
2018-Nov-06 04:28N 18°20' W 064°20'511.8
2018-Nov-06 04:02N 18°21' W 064°25'012.0
2018-Nov-06 04:00N 18°22' W 064°26'611.5
2018-Nov-06 03:30N 18°24' W 064°31'511.2
2018-Nov-06 03:03N 18°25' W 064°36'0 0.0
2018-Nov-05 12:16N 18°25' W 064°36'210.5
2018-Nov-05 12:03N 18°24' W 064°34'111.7
2018-Nov-05 12:00N 18°24' W 064°33'510.0
2018-Nov-05 11:30N 18°28' W 064°29'511.3
2018-Nov-05 11:04N 18°30' W 064°34'112.7
2018-Nov-05 11:00N 18°31' W 064°34'612.8
2018-Nov-05 10:30N 18°31' W 064°41'613.0
2018-Nov-05 10:03N 18°31' W 064°47'113.2
2018-Nov-05 10:00N 18°31' W 064°48'712.9
2018-Nov-05 09:30N 18°31' W 064°55'613.1
2018-Nov-05 09:03N 18°31' W 065°01'213.2
2018-Nov-05 08:54N 18°31' W 065°03'  
2018-Nov-01 00:56N 26°09' W 079°22'716.1
2018-Nov-01 00:30N 26°09' W 079°30'716.1
2018-Nov-01 00:03N 26°08' W 079°38'116.3
2018-Nov-01 00:00N 26°08' W 079°39'816.3
2018-Oct-31 23:30N 26°07' W 079°48'716.4
2018-Oct-31 23:03N 26°06' W 079°56'116.4
2018-Oct-31 23:00N 26°06' W 079°57'715.0
2018-Oct-31 22:31N 26°05' W 080°05'2 3.9
2018-Oct-31 22:01N 26°05' W 080°07'0 0.8
2018-Oct-31 21:59N 26°05' W 080°07'0 0.0
2018-Oct-31 21:29N 26°05' W 080°07'0 0.0
2018-Oct-31 21:02N 26°05' W 080°07'0 0.3
2018-Oct-31 20:58N 26°05' W 080°07'0 0.0
2018-Oct-31 20:29N 26°05' W 080°07'0 0.0
2018-Oct-31 20:02N 26°05' W 080°07'0 0.0
2018-Oct-31 19:59N 26°05' W 080°07'0 0.0
2018-Oct-31 19:29N 26°05' W 080°07'0 0.0
2018-Oct-31 19:02N 26°05' W 080°07'0 0.0
2018-Oct-31 18:59N 26°05' W 080°07'0 0.0
2018-Oct-31 18:29N 26°05' W 080°07'0 0.0
2018-Oct-31 18:02N 26°05' W 080°07'0 0.0
2018-Oct-31 17:59N 26°05' W 080°07'0 0.0
2018-Oct-31 17:29N 26°05' W 080°07'0 0.0
2018-Oct-31 17:02N 26°05' W 080°07'0 0.1
2018-Oct-31 16:59N 26°05' W 080°07'0 0.0
2018-Oct-31 16:29N 26°05' W 080°07'0 0.0
2018-Oct-31 16:02N 26°05' W 080°07'0 0.1
2018-Oct-31 15:56N 26°05' W 080°07'0 0.0
2018-Oct-31 15:22N 26°05' W 080°07'0 0.0
2018-Oct-31 15:02N 26°05' W 080°07'0 0.2
2018-Oct-31 14:58N 26°05' W 080°07'0 0.0
2018-Oct-31 14:02N 26°05' W 080°07'0 0.0
2018-Oct-31 13:53N 26°05' W 080°07'0 0.0
2018-Oct-31 13:23N 26°05' W 080°07'0 0.0
2018-Oct-31 12:58N 26°05' W 080°07'0 0.0
2018-Oct-31 12:28N 26°05' W 080°07'0 0.0
2018-Oct-31 11:56N 26°05' W 080°07'0 0.0
2018-Oct-31 11:26N 26°05' W 080°07'0 0.0
2018-Oct-31 11:01N 26°05' W 080°07'0 0.3
2018-Oct-31 10:56N 26°05' W 080°07'0 0.0
2018-Oct-31 10:26N 26°05' W 080°07'0 0.0
2018-Oct-31 09:56N 26°05' W 080°07'0 0.1
2018-Oct-31 09:30N 26°05' W 080°07'3 6.5
2018-Oct-31 09:03N 26°06' W 080°04'112.3
2018-Oct-31 09:00N 26°06' W 080°03'5 9.1
2018-Oct-31 08:30N 26°05' W 079°58'4 9.7
2018-Oct-31 08:03N 26°06' W 079°53'110.9
2018-Oct-31 08:00N 26°06' W 079°53'510.1
2018-Oct-31 07:30N 26°07' W 079°47'4 9.5
2018-Oct-31 07:03N 26°08' W 079°42'010.1
2018-Oct-31 07:00N 26°08' W 079°42'5 9.8
2018-Oct-31 06:30N 26°08' W 079°36'4 9.8
2018-Oct-31 06:03N 26°09' W 079°32'010.3
2018-Oct-31 06:00N 26°09' W 079°31'5 9.9
2018-Oct-31 05:30N 26°09' W 079°26'4 9.7
2018-Oct-31 05:03N 26°10' W 079°21'0 9.3
2018-Oct-31 05:00N 26°10' W 079°20'  
Track history (hours):
 
Tides and Currents Weather Stations Pressure Air Temp Water Temp Dewpoint Dewpoint Depression Visibility Wind Speed Wind Dir Waves Ship Positions

Christina O

Operator: V Ships Leisure SAM

Last reported at 2018-Nov-09 00:29 UTC. Time now 2018-Nov-13 06:50 UTC.
Position N 14°00' W 061°06'.

Length 186 m; draft 6.1 m.

Type: Passenger vessel. MMSI: 308322000.

Date/timePositionNaut miles runAvg speedWind from/ knotsBaromVisibWave heightAir tempDewpointWater temp
2018-Nov-09 00:29N 14°00' W 061°06'611.8
2018-Nov-08 23:59N 14°01' W 060°60'1 0.1
2018-Nov-08 09:54N 14°01' W 061°01'410.6
2018-Nov-08 09:32N 14°05' W 061°03'610.9
2018-Nov-08 09:00N 14°10' W 061°06'510.9
2018-Nov-08 08:32N 14°15' W 061°08'511.0
2018-Nov-08 08:02N 14°20' W 061°10'611.3
2018-Nov-08 07:32N 14°25' W 061°12'214 6.7
2018-Nov-06 23:24N 17°35' W 062°54'615.0
2018-Nov-06 23:02N 17°41' W 062°54'115.3
2018-Nov-06 22:59N 17°42' W 062°54'1313.2
2018-Nov-06 22:00N 17°54' W 062°52'2 0.2
2018-Nov-06 11:40N 17°54' W 062°54'211.8
2018-Nov-06 11:29N 17°55' W 062°56'511.8
2018-Nov-06 11:03N 17°56' W 063°02'111.9
2018-Nov-06 10:59N 17°56' W 063°02'1111.9
2018-Nov-06 10:01N 17°59' W 063°14'1412.0
2018-Nov-06 08:52N 18°03' W 063°28'511.7
2018-Nov-06 08:26N 18°05' W 063°33'4312.0
2018-Nov-06 04:49N 18°19' W 064°16'411.8
2018-Nov-06 04:28N 18°20' W 064°20'511.8
2018-Nov-06 04:02N 18°21' W 064°25'012.0
2018-Nov-06 04:00N 18°22' W 064°26'611.5
2018-Nov-06 03:30N 18°24' W 064°31'511.2
2018-Nov-06 03:03N 18°25' W 064°36'0 0.0
2018-Nov-05 12:16N 18°25' W 064°36'210.5
2018-Nov-05 12:03N 18°24' W 064°34'111.7
2018-Nov-05 12:00N 18°24' W 064°33'510.0
2018-Nov-05 11:30N 18°28' W 064°29'511.3
2018-Nov-05 11:04N 18°30' W 064°34'112.7
2018-Nov-05 11:00N 18°31' W 064°34'612.8
2018-Nov-05 10:30N 18°31' W 064°41'613.0
2018-Nov-05 10:03N 18°31' W 064°47'113.2
2018-Nov-05 10:00N 18°31' W 064°48'712.9
2018-Nov-05 09:30N 18°31' W 064°55'613.1
2018-Nov-05 09:03N 18°31' W 065°01'213.2
2018-Nov-05 08:54N 18°31' W 065°03'  
2018-Nov-01 00:56N 26°09' W 079°22'716.1
2018-Nov-01 00:30N 26°09' W 079°30'716.1
2018-Nov-01 00:03N 26°08' W 079°38'116.3
2018-Nov-01 00:00N 26°08' W 079°39'816.3
2018-Oct-31 23:30N 26°07' W 079°48'716.4
2018-Oct-31 23:03N 26°06' W 079°56'116.4
2018-Oct-31 23:00N 26°06' W 079°57'715.0
2018-Oct-31 22:31N 26°05' W 080°05'2 3.9
2018-Oct-31 22:01N 26°05' W 080°07'0 0.8
2018-Oct-31 21:59N 26°05' W 080°07'0 0.0
2018-Oct-31 21:29N 26°05' W 080°07'0 0.0
2018-Oct-31 21:02N 26°05' W 080°07'0 0.3
2018-Oct-31 20:58N 26°05' W 080°07'0 0.0
2018-Oct-31 20:29N 26°05' W 080°07'0 0.0
2018-Oct-31 20:02N 26°05' W 080°07'0 0.0
2018-Oct-31 19:59N 26°05' W 080°07'0 0.0
2018-Oct-31 19:29N 26°05' W 080°07'0 0.0
2018-Oct-31 19:02N 26°05' W 080°07'0 0.0
2018-Oct-31 18:59N 26°05' W 080°07'0 0.0
2018-Oct-31 18:29N 26°05' W 080°07'0 0.0
2018-Oct-31 18:02N 26°05' W 080°07'0 0.0
2018-Oct-31 17:59N 26°05' W 080°07'0 0.0
2018-Oct-31 17:29N 26°05' W 080°07'0 0.0
2018-Oct-31 17:02N 26°05' W 080°07'0 0.1
2018-Oct-31 16:59N 26°05' W 080°07'0 0.0
2018-Oct-31 16:29N 26°05' W 080°07'0 0.0
2018-Oct-31 16:02N 26°05' W 080°07'0 0.1
2018-Oct-31 15:56N 26°05' W 080°07'0 0.0
2018-Oct-31 15:22N 26°05' W 080°07'0 0.0
2018-Oct-31 15:02N 26°05' W 080°07'0 0.2
2018-Oct-31 14:58N 26°05' W 080°07'0 0.0
2018-Oct-31 14:02N 26°05' W 080°07'0 0.0
2018-Oct-31 13:53N 26°05' W 080°07'0 0.0
2018-Oct-31 13:23N 26°05' W 080°07'0 0.0
2018-Oct-31 12:58N 26°05' W 080°07'0 0.0
2018-Oct-31 12:28N 26°05' W 080°07'0 0.0
2018-Oct-31 11:56N 26°05' W 080°07'0 0.0
2018-Oct-31 11:26N 26°05' W 080°07'0 0.0
2018-Oct-31 11:01N 26°05' W 080°07'0 0.3
2018-Oct-31 10:56N 26°05' W 080°07'0 0.0
2018-Oct-31 10:26N 26°05' W 080°07'0 0.0
2018-Oct-31 09:56N 26°05' W 080°07'0 0.1
2018-Oct-31 09:30N 26°05' W 080°07'3 6.5
2018-Oct-31 09:03N 26°06' W 080°04'112.3
2018-Oct-31 09:00N 26°06' W 080°03'5 9.1
2018-Oct-31 08:30N 26°05' W 079°58'4 9.7
2018-Oct-31 08:03N 26°06' W 079°53'110.9
2018-Oct-31 08:00N 26°06' W 079°53'510.1
2018-Oct-31 07:30N 26°07' W 079°47'4 9.5
2018-Oct-31 07:03N 26°08' W 079°42'010.1
2018-Oct-31 07:00N 26°08' W 079°42'5 9.8
2018-Oct-31 06:30N 26°08' W 079°36'4 9.8
2018-Oct-31 06:03N 26°09' W 079°32'010.3
2018-Oct-31 06:00N 26°09' W 079°31'5 9.9
2018-Oct-31 05:30N 26°09' W 079°26'4 9.7
2018-Oct-31 05:03N 26°10' W 079°21'0 9.3
2018-Oct-31 05:00N 26°10' W 079°20'  

Dump ship's entire track history